createdAt,value
2022-09-12T00:00:29.368Z,12.40
2022-09-12T00:02:57.476Z,12.34
2022-09-12T00:05:25.355Z,12.27
2022-09-12T00:07:53.070Z,12.19
2022-09-12T00:10:20.929Z,12.19
2022-09-12T00:12:49.869Z,12.21
2022-09-12T00:15:17.662Z,12.18
2022-09-12T00:17:45.420Z,12.19
2022-09-12T00:20:13.750Z,12.10
2022-09-12T00:22:41.409Z,12.09
2022-09-12T00:25:09.484Z,12.03
2022-09-12T00:27:37.082Z,11.98
2022-09-12T00:30:07.247Z,12.00
2022-09-12T00:32:35.076Z,12.03
2022-09-12T00:35:03.356Z,12.04
2022-09-12T00:37:31.235Z,12.07
2022-09-12T00:39:59.202Z,12.09
2022-09-12T00:42:27.541Z,12.12
2022-09-12T00:44:55.173Z,12.08
2022-09-12T00:47:30.454Z,12.08
2022-09-12T00:50:04.324Z,12.01
2022-09-12T00:52:36.653Z,11.95
2022-09-12T00:55:08.733Z,11.92
2022-09-12T00:57:41.993Z,11.89
2022-09-12T01:00:15.905Z,11.84
2022-09-12T01:02:52.986Z,11.83
2022-09-12T01:05:22.324Z,11.81
2022-09-12T01:07:51.703Z,11.82
2022-09-12T01:10:20.509Z,11.76
2022-09-12T01:12:49.563Z,11.75
2022-09-12T01:15:17.366Z,11.74
2022-09-12T01:17:58.514Z,11.79
2022-09-12T01:20:57.888Z,11.81
2022-09-12T01:23:54.844Z,11.82
2022-09-12T01:26:53.068Z,11.81
2022-09-12T01:29:41.370Z,11.82
2022-09-12T01:32:17.184Z,11.64
2022-09-12T01:34:51.435Z,11.64
2022-09-12T01:37:33.406Z,11.58
2022-09-12T01:40:08.288Z,11.54
2022-09-12T01:42:47.512Z,11.45
2022-09-12T01:45:21.639Z,11.45
2022-09-12T01:47:55.638Z,11.41
2022-09-12T01:50:29.086Z,11.35
2022-09-12T01:53:02.104Z,11.35
2022-09-12T01:55:33.516Z,11.36
2022-09-12T01:58:07.764Z,11.35
2022-09-12T02:00:41.161Z,11.34
2022-09-12T02:03:15.433Z,11.23
2022-09-12T02:05:48.334Z,11.18
2022-09-12T02:08:21.481Z,11.16
2022-09-12T02:10:54.529Z,11.18
2022-09-12T02:13:27.440Z,11.15
2022-09-12T02:16:00.090Z,11.05
2022-09-12T02:18:33.250Z,11.04
2022-09-12T02:21:02.528Z,11.01
2022-09-12T02:23:33.232Z,11.03
2022-09-12T02:26:04.463Z,11.04
2022-09-12T02:28:36.712Z,11.03
2022-09-12T02:31:12.726Z,10.87
2022-09-12T02:33:49.888Z,10.82
2022-09-12T02:36:34.818Z,10.83
2022-09-12T02:39:02.950Z,10.89
2022-09-12T02:41:30.936Z,10.93
2022-09-12T02:43:58.839Z,10.95
2022-09-12T02:46:29.736Z,11.00
2022-09-12T02:48:59.043Z,10.90
2022-09-12T02:51:27.244Z,10.87
2022-09-12T02:53:55.490Z,10.62
2022-09-12T02:56:28.088Z,10.54
2022-09-12T02:58:59.987Z,10.51
2022-09-12T03:01:42.175Z,10.43
2022-09-12T03:04:26.858Z,10.41
2022-09-12T03:07:05.315Z,10.44
2022-09-12T03:09:41.082Z,10.36
2022-09-12T03:12:24.575Z,10.27
2022-09-12T03:15:10.941Z,10.18
2022-09-12T03:17:52.372Z,10.31
2022-09-12T03:20:30.865Z,10.34
2022-09-12T03:23:03.687Z,10.32
2022-09-12T03:25:37.673Z,10.39
2022-09-12T03:28:09.324Z,10.44
2022-09-12T03:30:39.947Z,10.47
2022-09-12T03:33:07.867Z,10.47
2022-09-12T03:35:37.306Z,10.44
2022-09-12T03:38:07.933Z,10.29
2022-09-12T03:40:35.685Z,10.25
2022-09-12T03:43:03.838Z,10.27
2022-09-12T03:45:32.260Z,10.16
2022-09-12T03:48:00.159Z,10.20
2022-09-12T03:50:28.267Z,10.16
2022-09-12T03:52:57.245Z,10.18
2022-09-12T03:55:25.550Z,10.21
2022-09-12T03:57:54.013Z,10.23
2022-09-12T04:00:22.126Z,10.26
2022-09-12T04:02:49.818Z,10.29
2022-09-12T04:05:17.796Z,10.28
2022-09-12T04:07:45.391Z,10.32
2022-09-12T04:10:16.322Z,10.30
2022-09-12T04:12:44.307Z,10.24
2022-09-12T04:15:12.167Z,10.23
2022-09-12T04:17:39.810Z,10.26
2022-09-12T04:20:08.124Z,10.26
2022-09-12T04:22:35.758Z,10.27
2022-09-12T04:25:05.138Z,10.30
2022-09-12T04:27:34.446Z,10.31
2022-09-12T04:30:03.102Z,10.31
2022-09-12T04:32:31.378Z,10.33
2022-09-12T04:34:59.778Z,10.31
2022-09-12T04:37:27.684Z,10.34
2022-09-12T04:39:57.917Z,10.31
2022-09-12T04:42:25.768Z,10.29
2022-09-12T04:44:54.678Z,10.28
2022-09-12T04:47:23.272Z,10.29
2022-09-12T04:49:51.483Z,10.24
2022-09-12T04:52:19.566Z,10.27
2022-09-12T04:54:47.159Z,10.25
2022-09-12T04:57:15.430Z,10.23
2022-09-12T04:59:43.279Z,10.20
2022-09-12T05:02:12.358Z,10.18
2022-09-12T05:04:40.031Z,10.15
2022-09-12T05:07:08.449Z,10.16
2022-09-12T05:09:36.359Z,10.17
2022-09-12T05:12:05.658Z,10.21
2022-09-12T05:14:34.078Z,10.25
2022-09-12T05:17:02.142Z,10.29
2022-09-12T05:19:31.959Z,10.34
2022-09-12T05:22:00.626Z,10.41
2022-09-12T05:24:28.760Z,10.42
2022-09-12T05:26:57.206Z,10.49
2022-09-12T05:29:25.614Z,10.51
2022-09-12T05:31:53.426Z,10.61
2022-09-12T05:34:21.678Z,10.70
2022-09-12T05:36:50.642Z,10.79
2022-09-12T05:39:18.759Z,10.90
2022-09-12T05:41:47.301Z,11.00
2022-09-12T05:44:15.819Z,11.05
2022-09-12T05:46:46.657Z,11.15
2022-09-12T05:49:14.769Z,11.23
2022-09-12T05:51:45.158Z,11.26
2022-09-12T05:54:17.768Z,11.30
2022-09-12T05:56:46.402Z,11.34
2022-09-12T05:59:16.193Z,11.39
2022-09-12T06:01:45.061Z,11.44
2022-09-12T06:04:13.624Z,11.55
2022-09-12T06:06:45.036Z,11.68
2022-09-12T06:09:17.470Z,11.80
2022-09-12T06:11:47.083Z,11.89
2022-09-12T06:14:17.695Z,11.94
2022-09-12T06:16:46.492Z,12.05
2022-09-12T06:19:16.303Z,12.16
2022-09-12T06:21:45.197Z,12.20
2022-09-12T06:24:14.362Z,12.34
2022-09-12T06:26:43.683Z,12.40
2022-09-12T06:29:13.257Z,12.62
2022-09-12T06:31:42.686Z,12.76
2022-09-12T06:34:11.908Z,12.71
2022-09-12T06:36:42.931Z,12.89
2022-09-12T06:39:14.666Z,13.08
2022-09-12T06:41:44.233Z,13.29
2022-09-12T06:44:14.244Z,13.45
2022-09-12T06:46:41.858Z,13.60
2022-09-12T06:49:09.951Z,13.79
2022-09-12T06:51:38.356Z,13.96
2022-09-12T06:54:06.646Z,14.10
2022-09-12T06:56:36.011Z,14.23
2022-09-12T06:59:03.670Z,14.31
2022-09-12T07:01:32.894Z,14.40
2022-09-12T07:04:02.446Z,14.56
2022-09-12T07:06:33.102Z,14.62
2022-09-12T07:09:02.599Z,14.72
2022-09-12T07:11:33.710Z,14.80
2022-09-12T07:14:04.798Z,14.89
2022-09-12T07:16:33.351Z,14.82
2022-09-12T07:19:02.871Z,15.07
2022-09-12T07:21:31.715Z,15.17
2022-09-12T07:23:59.627Z,15.34
2022-09-12T07:26:29.550Z,15.41
2022-09-12T07:29:13.229Z,15.53
2022-09-12T07:31:48.461Z,15.60
2022-09-12T07:34:17.510Z,15.73
2022-09-12T07:36:45.774Z,15.94
2022-09-12T07:39:13.432Z,16.06
2022-09-12T07:41:41.832Z,16.20
2022-09-12T07:44:09.591Z,16.37
2022-09-12T07:46:37.755Z,16.53
2022-09-12T07:49:08.479Z,16.68
2022-09-12T07:51:36.296Z,16.82
2022-09-12T07:54:09.373Z,17.00
2022-09-12T07:56:39.245Z,17.11
2022-09-12T07:59:08.387Z,17.19
2022-09-12T08:01:36.337Z,17.42
2022-09-12T08:04:05.605Z,17.60
2022-09-12T08:06:36.150Z,17.80
2022-09-12T08:09:05.630Z,18.03
2022-09-12T08:11:33.272Z,18.25
2022-09-12T08:14:03.408Z,18.43
2022-09-12T08:16:32.363Z,18.63
2022-09-12T08:19:02.474Z,18.84
2022-09-12T08:21:32.578Z,18.95
2022-09-12T08:24:04.988Z,19.18
2022-09-12T08:26:33.912Z,19.36
2022-09-12T08:29:02.278Z,19.60
2022-09-12T08:31:31.843Z,19.73
2022-09-12T08:34:01.130Z,19.94
2022-09-12T08:36:29.847Z,20.03
2022-09-12T08:39:00.531Z,20.25
2022-09-12T08:41:34.923Z,20.55
2022-09-12T08:44:33.200Z,20.71
2022-09-12T08:47:20.410Z,20.73
2022-09-12T08:49:56.340Z,21.00
2022-09-12T08:52:30.051Z,21.24
2022-09-12T08:54:58.307Z,21.46
2022-09-12T08:57:27.480Z,21.75
2022-09-12T08:59:55.501Z,21.95
2022-09-12T09:03:03.550Z,22.20
2022-09-12T09:05:47.147Z,22.36
2022-09-12T09:08:32.244Z,22.47
2022-09-12T09:11:13.108Z,22.55
2022-09-12T09:14:14.148Z,22.69
2022-09-12T09:16:45.066Z,22.96
2022-09-12T09:19:17.912Z,23.06
2022-09-12T09:21:51.793Z,23.04
2022-09-12T09:24:23.299Z,23.40
2022-09-12T09:26:59.043Z,23.51
2022-09-12T09:29:32.486Z,23.79
2022-09-12T09:32:02.140Z,23.94
2022-09-12T09:34:33.086Z,24.12
2022-09-12T09:37:08.250Z,24.47
2022-09-12T09:39:47.656Z,24.75
2022-09-12T09:42:28.530Z,25.20
2022-09-12T09:45:00.770Z,25.27
2022-09-12T09:47:28.389Z,25.49
2022-09-12T09:49:56.024Z,25.53
2022-09-12T09:52:27.514Z,25.76
2022-09-12T09:54:59.269Z,25.92
2022-09-12T09:57:41.367Z,26.33
2022-09-12T10:00:30.772Z,26.47
2022-09-12T10:03:06.268Z,26.55
2022-09-12T10:05:46.559Z,26.86
2022-09-12T10:08:24.427Z,27.18
2022-09-12T10:10:57.884Z,27.45
2022-09-12T10:13:31.648Z,27.63
2022-09-12T10:16:02.920Z,27.49
2022-09-12T10:18:40.097Z,27.67
2022-09-12T10:21:32.179Z,27.95
2022-09-12T10:24:04.846Z,28.10
2022-09-12T10:26:36.137Z,28.13
2022-09-12T10:29:18.275Z,28.24
2022-09-12T10:31:54.044Z,28.32
2022-09-12T10:34:30.591Z,28.45
2022-09-12T10:37:05.546Z,28.55
2022-09-12T10:39:35.466Z,28.89
2022-09-12T10:42:04.710Z,29.07
2022-09-12T10:44:34.535Z,29.23
2022-09-12T10:47:21.541Z,29.24
2022-09-12T10:49:51.328Z,29.22
2022-09-12T10:52:24.174Z,29.21
2022-09-12T10:54:52.373Z,29.21
2022-09-12T10:57:43.304Z,29.12
2022-09-12T11:00:17.947Z,29.01
2022-09-12T11:03:00.114Z,29.03
2022-09-12T11:05:42.863Z,29.02
2022-09-12T11:08:20.819Z,28.94
2022-09-12T11:10:57.021Z,28.86
2022-09-12T11:13:48.177Z,28.93
2022-09-12T11:16:26.630Z,29.00
2022-09-12T11:19:11.895Z,28.93
2022-09-12T11:21:51.056Z,28.93
2022-09-12T11:24:45.829Z,28.53
2022-09-12T11:27:29.367Z,28.26
2022-09-12T11:30:00.844Z,27.99
2022-09-12T11:32:42.504Z,27.76
2022-09-12T11:35:20.484Z,27.68
2022-09-12T11:38:00.709Z,27.50
2022-09-12T11:40:33.843Z,27.41
2022-09-12T11:43:08.672Z,27.30
2022-09-12T11:45:42.178Z,27.09
2022-09-12T11:48:17.102Z,26.99
2022-09-12T11:50:46.325Z,26.84
2022-09-12T11:53:20.895Z,26.57
2022-09-12T11:55:56.538Z,26.42
2022-09-12T11:58:29.223Z,26.34
2022-09-12T12:01:05.451Z,26.14
2022-09-12T12:03:38.770Z,26.04
2022-09-12T12:06:14.292Z,25.89
2022-09-12T12:08:44.106Z,25.80
2022-09-12T12:11:15.306Z,25.74
2022-09-12T12:13:49.590Z,25.69
2022-09-12T12:16:23.551Z,25.51
2022-09-12T12:18:55.880Z,25.42
2022-09-12T12:21:39.700Z,25.47
2022-09-12T12:24:17.052Z,25.63
2022-09-12T12:26:56.931Z,25.84
2022-09-12T12:29:43.836Z,25.92
2022-09-12T12:32:28.129Z,25.92
2022-09-12T12:35:35.497Z,25.65
2022-09-12T12:38:06.674Z,25.66
2022-09-12T12:40:34.266Z,25.58
2022-09-12T12:43:07.977Z,25.34
2022-09-12T12:46:11.961Z,25.16
2022-09-12T12:49:08.207Z,25.11
2022-09-12T12:51:45.430Z,25.17
2022-09-12T12:54:32.414Z,25.10
2022-09-12T12:57:18.182Z,25.02
2022-09-12T12:59:52.781Z,24.97
2022-09-12T13:02:24.489Z,25.00
2022-09-12T13:04:53.760Z,24.98
2022-09-12T13:07:28.855Z,24.93
2022-09-12T13:09:59.448Z,24.90
2022-09-12T13:12:30.088Z,24.82
2022-09-12T13:14:59.384Z,24.65
2022-09-12T13:17:33.167Z,24.59
2022-09-12T13:20:28.015Z,24.57
2022-09-12T13:22:57.047Z,24.61
2022-09-12T13:25:29.572Z,24.53
2022-09-12T13:28:03.984Z,24.57
2022-09-12T13:30:34.422Z,24.63
2022-09-12T13:33:14.047Z,24.62
2022-09-12T13:35:54.727Z,24.58
2022-09-12T13:38:32.241Z,24.70
2022-09-12T13:41:21.932Z,24.81
2022-09-12T13:43:50.410Z,24.88
2022-09-12T13:46:30.629Z,24.89
2022-09-12T13:48:59.544Z,24.93
2022-09-12T13:51:30.103Z,24.92
2022-09-12T13:54:00.180Z,24.96
2022-09-12T13:56:29.515Z,24.90
2022-09-12T13:59:00.249Z,24.77
2022-09-12T14:01:39.879Z,24.77
2022-09-12T14:04:34.356Z,24.77
2022-09-12T14:07:05.003Z,24.75
2022-09-12T14:09:38.467Z,24.81
2022-09-12T14:12:18.256Z,24.81
2022-09-12T14:14:49.904Z,24.65
2022-09-12T14:17:20.813Z,24.75
2022-09-12T14:19:52.593Z,24.77
2022-09-12T14:22:20.979Z,24.74
2022-09-12T14:24:51.571Z,24.75
2022-09-12T14:27:25.697Z,24.75
2022-09-12T14:30:03.734Z,24.81
2022-09-12T14:32:31.800Z,24.79
2022-09-12T14:35:21.368Z,24.77
2022-09-12T14:37:51.475Z,24.92
2022-09-12T14:40:21.505Z,25.00
2022-09-12T14:42:52.650Z,24.99
2022-09-12T14:45:26.188Z,24.98
2022-09-12T14:47:54.607Z,25.00
2022-09-12T14:50:24.580Z,25.01
2022-09-12T14:53:05.090Z,25.19
2022-09-12T14:55:34.726Z,25.36
2022-09-12T14:58:16.689Z,25.42
2022-09-12T15:01:00.126Z,25.48
2022-09-12T15:03:33.909Z,25.49
2022-09-12T15:06:03.965Z,25.45
2022-09-12T15:08:33.203Z,25.44
2022-09-12T15:11:01.428Z,25.63
2022-09-12T15:13:32.564Z,25.99
2022-09-12T15:16:00.831Z,26.34
2022-09-12T15:18:30.276Z,26.68
2022-09-12T15:21:03.477Z,26.96
2022-09-12T15:23:36.266Z,27.01
2022-09-12T15:26:04.311Z,27.10
2022-09-12T15:28:34.384Z,26.98
2022-09-12T15:31:07.697Z,26.96
2022-09-12T15:33:35.492Z,26.94
2022-09-12T15:36:03.637Z,26.80
2022-09-12T15:38:31.822Z,26.90
2022-09-12T15:40:59.404Z,27.04
2022-09-12T15:43:27.330Z,27.33
2022-09-12T15:45:56.307Z,27.76
2022-09-12T15:48:24.696Z,28.30
2022-09-12T15:50:52.267Z,28.81
2022-09-12T15:53:19.855Z,28.97
2022-09-12T15:55:47.441Z,28.91
2022-09-12T15:58:15.280Z,28.67
2022-09-12T16:00:42.878Z,28.44
2022-09-12T16:03:21.761Z,27.92
2022-09-12T16:05:49.622Z,27.31
2022-09-12T16:08:17.689Z,26.90
2022-09-12T16:10:47.150Z,26.52
2022-09-12T16:13:15.095Z,26.22
2022-09-12T16:15:42.746Z,25.88
2022-09-12T16:18:10.779Z,25.51
2022-09-12T16:20:41.095Z,25.18
2022-09-12T16:23:11.176Z,24.95
2022-09-12T16:25:38.810Z,24.73
2022-09-12T16:28:06.707Z,24.53
2022-09-12T16:30:34.833Z,24.37
2022-09-12T16:33:02.994Z,24.30
2022-09-12T16:35:32.847Z,24.18
2022-09-12T16:38:02.135Z,24.04
2022-09-12T16:40:30.350Z,23.84
2022-09-12T16:42:58.584Z,23.78
2022-09-12T16:45:26.182Z,23.67
2022-09-12T16:47:53.922Z,23.59
2022-09-12T16:50:21.511Z,23.45
2022-09-12T16:52:49.410Z,23.30
2022-09-12T16:55:18.366Z,23.07
2022-09-12T16:57:47.596Z,22.98
2022-09-12T17:00:15.675Z,22.87
2022-09-12T17:02:43.756Z,22.79
2022-09-12T17:05:11.474Z,22.78
2022-09-12T17:07:39.810Z,22.82
2022-09-12T17:10:08.434Z,22.90
2022-09-12T17:12:38.065Z,22.79
2022-09-12T17:15:06.479Z,22.72
2022-09-12T17:17:34.311Z,22.51
2022-09-12T17:20:02.014Z,22.37
2022-09-12T17:22:30.291Z,22.12
2022-09-12T17:24:57.899Z,21.91
2022-09-12T17:27:25.923Z,21.74
2022-09-12T17:29:54.863Z,21.57
2022-09-12T17:32:23.162Z,21.39
2022-09-12T17:34:50.775Z,21.25
2022-09-12T17:37:18.386Z,21.10
2022-09-12T17:39:47.254Z,20.95
2022-09-12T17:42:14.966Z,20.76
2022-09-12T17:44:42.578Z,20.68
2022-09-12T17:47:11.546Z,20.53
2022-09-12T17:49:39.363Z,20.39
2022-09-12T17:52:07.628Z,20.22
2022-09-12T17:54:35.204Z,20.12
2022-09-12T17:57:04.800Z,20.00
2022-09-12T17:59:32.409Z,19.91
2022-09-12T18:02:14.719Z,19.77
2022-09-12T18:04:47.284Z,19.58
2022-09-12T18:07:16.069Z,19.41
2022-09-12T18:09:43.787Z,19.27
2022-09-12T18:12:12.095Z,19.04
2022-09-12T18:14:39.956Z,18.89
2022-09-12T18:17:08.657Z,18.82
2022-09-12T18:19:36.751Z,18.71
2022-09-12T18:22:07.011Z,18.58
2022-09-12T18:24:34.880Z,18.48
2022-09-12T18:27:03.946Z,18.42
2022-09-12T18:29:31.572Z,18.36
2022-09-12T18:31:59.353Z,18.26
2022-09-12T18:34:27.294Z,18.16
2022-09-12T18:36:55.555Z,18.10
2022-09-12T18:39:27.658Z,18.05
2022-09-12T18:41:55.859Z,17.98
2022-09-12T18:44:23.440Z,17.73
2022-09-12T18:46:51.097Z,17.57
2022-09-12T18:49:18.774Z,17.50
2022-09-12T18:51:46.785Z,17.45
2022-09-12T18:54:15.369Z,17.37
2022-09-12T18:56:45.608Z,17.24
2022-09-12T18:59:14.726Z,17.21
2022-09-12T19:01:43.470Z,17.13
2022-09-12T19:04:13.392Z,16.98
2022-09-12T19:06:43.101Z,16.84
2022-09-12T19:09:12.499Z,16.71
2022-09-12T19:11:48.540Z,16.65
2022-09-12T19:14:18.802Z,16.51
2022-09-12T19:16:46.739Z,16.56
2022-09-12T19:19:14.352Z,16.53
2022-09-12T19:21:43.227Z,16.47
2022-09-12T19:24:11.917Z,16.43
2022-09-12T19:26:40.754Z,16.36
2022-09-12T19:29:09.134Z,16.31
2022-09-12T19:31:38.199Z,16.30
2022-09-12T19:34:07.810Z,16.24
2022-09-12T19:36:51.703Z,16.19
2022-09-12T19:39:20.436Z,16.18
2022-09-12T19:41:49.213Z,16.17
2022-09-12T19:44:19.091Z,16.14
2022-09-12T19:46:48.171Z,16.13
2022-09-12T19:49:15.822Z,15.89
2022-09-12T19:51:43.928Z,15.83
2022-09-12T19:54:13.602Z,15.85
2022-09-12T19:56:41.253Z,15.86
2022-09-12T19:59:09.671Z,15.83
2022-09-12T20:01:37.789Z,15.84
2022-09-12T20:04:07.506Z,15.83
2022-09-12T20:06:36.997Z,15.75
2022-09-12T20:09:04.881Z,15.73
2022-09-12T20:11:32.563Z,15.71
2022-09-12T20:14:00.407Z,15.68
2022-09-12T20:16:30.039Z,15.66
2022-09-12T20:18:59.970Z,15.63
2022-09-12T20:21:32.890Z,15.60
2022-09-12T20:24:02.887Z,15.57
2022-09-12T20:26:31.036Z,15.58
2022-09-12T20:28:58.988Z,15.54
2022-09-12T20:31:26.812Z,15.48
2022-09-12T20:33:55.211Z,15.47
2022-09-12T20:36:23.991Z,15.39
2022-09-12T20:38:56.573Z,15.35
2022-09-12T20:41:24.995Z,15.29
2022-09-12T20:43:53.203Z,15.28
2022-09-12T20:46:22.594Z,15.23
2022-09-12T20:48:51.157Z,15.20
2022-09-12T20:51:19.142Z,15.16
2022-09-12T20:53:47.116Z,15.12
2022-09-12T20:56:16.216Z,15.08
2022-09-12T20:58:44.796Z,14.96
2022-09-12T21:01:13.558Z,14.95
2022-09-12T21:03:42.217Z,14.96
2022-09-12T21:06:12.842Z,14.93
2022-09-12T21:08:41.274Z,14.84
2022-09-12T21:11:09.346Z,14.68
2022-09-12T21:13:38.752Z,14.58
2022-09-12T21:16:08.427Z,14.46
2022-09-12T21:18:36.806Z,14.47
2022-09-12T21:21:06.300Z,14.39
2022-09-12T21:23:34.907Z,14.32
2022-09-12T21:26:03.350Z,14.29
2022-09-12T21:28:32.014Z,14.28
2022-09-12T21:31:01.360Z,14.31
2022-09-12T21:33:29.100Z,14.26
2022-09-12T21:36:01.592Z,14.24
2022-09-12T21:38:30.367Z,14.21
2022-09-12T21:41:04.944Z,14.20
2022-09-12T21:43:32.644Z,14.17
2022-09-12T21:46:02.341Z,14.19
2022-09-12T21:48:30.656Z,14.15
2022-09-12T21:50:58.695Z,14.13
2022-09-12T21:53:26.858Z,14.11
2022-09-12T21:55:54.494Z,14.12
2022-09-12T21:58:22.421Z,14.09
2022-09-12T22:00:51.160Z,14.05
2022-09-12T22:03:20.662Z,14.02
2022-09-12T22:05:52.090Z,14.01
2022-09-12T22:08:19.762Z,14.03
2022-09-12T22:10:47.400Z,14.05
2022-09-12T22:13:15.014Z,14.07
2022-09-12T22:15:44.207Z,14.06
2022-09-12T22:18:12.436Z,14.01
2022-09-12T22:20:41.408Z,14.00
2022-09-12T22:23:26.794Z,13.95
2022-09-12T22:25:56.607Z,13.97
2022-09-12T22:28:25.171Z,13.95
2022-09-12T22:30:54.728Z,13.76
2022-09-12T22:33:22.644Z,13.42
2022-09-12T22:35:51.783Z,13.31
2022-09-12T22:38:19.714Z,13.17
2022-09-12T22:40:47.323Z,13.15
2022-09-12T22:43:15.329Z,13.12
2022-09-12T22:45:43.067Z,12.98
2022-09-12T22:48:11.177Z,12.71
2022-09-12T22:50:38.773Z,12.67
2022-09-12T22:53:08.366Z,12.71
2022-09-12T22:55:35.998Z,12.71
2022-09-12T22:58:04.302Z,12.66
2022-09-12T23:00:31.968Z,12.65
2022-09-12T23:03:00.217Z,12.68
2022-09-12T23:05:28.090Z,12.70
2022-09-12T23:07:56.780Z,12.71
2022-09-12T23:10:25.952Z,12.74
2022-09-12T23:12:53.763Z,12.73
2022-09-12T23:15:21.391Z,12.76
2022-09-12T23:17:49.459Z,12.83
2022-09-12T23:20:17.131Z,12.80
2022-09-12T23:22:45.151Z,12.73
2022-09-12T23:25:12.840Z,12.64
2022-09-12T23:27:43.520Z,12.67
2022-09-12T23:30:12.159Z,12.69
2022-09-12T23:32:40.102Z,12.72
2022-09-12T23:35:08.164Z,12.75
2022-09-12T23:37:35.964Z,12.78
2022-09-12T23:40:04.053Z,12.69
2022-09-12T23:42:31.957Z,12.75
2022-09-12T23:45:00.886Z,12.81
2022-09-12T23:47:28.986Z,12.81
2022-09-12T23:49:56.612Z,12.81
2022-09-12T23:52:24.583Z,12.77
2022-09-12T23:54:52.210Z,12.74
2022-09-12T23:57:19.831Z,12.72
2022-09-12T23:59:47.434Z,12.69
